Time;durP1;ratioP1;P1;durP2;ratioP2;P2;SDS_P1;SDS_P2;PMS_P1;PMS_P2;Temp;Humidity;BMP_temperature;BMP_pressure;BME280_temperature;BME280_humidity;BME280_pressure;Samples;Min_cycle;Max_cycle;Signal;HPM_P1;HPM_P2
2021/09/04 00:06:28;;;;;;;19.25;11.30;;;9.80;99.90;;;;;;21002253;28;20448;-49
2021/09/04 00:16:30;;;;;;;16.70;11.00;;;9.90;99.90;;;;;;21001045;28;20041;-50
2021/09/04 00:26:32;;;;;;;19.45;10.98;;;9.90;99.90;;;;;;21000674;28;20032;-47
2021/09/04 00:36:35;;;;;;;18.70;11.43;;;9.80;99.90;;;;;;20997478;28;20037;-48
2021/09/04 00:46:37;;;;;;;22.33;13.25;;;9.80;99.90;;;;;;20999107;28;20089;-48
2021/09/04 00:56:39;;;;;;;19.23;11.55;;;9.60;99.90;;;;;;20998126;28;20059;-48
2021/09/04 01:06:42;;;;;;;18.90;11.55;;;9.50;99.90;;;;;;20996424;28;20051;-47
2021/09/04 01:16:45;;;;;;;22.27;11.98;;;9.50;99.90;;;;;;20996767;28;20032;-50
2021/09/04 01:26:47;;;;;;;19.45;11.48;;;9.50;99.90;;;;;;20995673;28;20032;-53
2021/09/04 01:36:49;;;;;;;22.02;11.05;;;9.50;99.90;;;;;;20995816;28;20052;-50
2021/09/04 01:46:51;;;;;;;17.52;11.27;;;9.40;99.90;;;;;;20993541;28;20044;-48
2021/09/04 01:56:53;;;;;;;19.98;11.63;;;9.70;99.90;;;;;;20993175;28;20036;-48
2021/09/04 02:06:55;;;;;;;21.02;12.02;;;9.60;99.90;;;;;;20992663;28;20610;-51
2021/09/04 02:16:56;;;;;;;17.25;11.23;;;9.50;99.90;;;;;;20991641;28;20082;-48
2021/09/04 02:26:59;;;;;;;27.80;14.40;;;9.60;99.90;;;;;;20990984;28;20378;-49
2021/09/04 02:37:03;;;;;;;21.48;13.05;;;9.30;99.90;;;;;;20990174;28;20040;-48
2021/09/04 02:47:06;;;;;;;19.17;11.95;;;9.20;99.90;;;;;;20991170;28;20028;-50
2021/09/04 02:57:09;;;;;;;21.45;14.27;;;9.40;99.90;;;;;;20989383;28;20028;-48
2021/09/04 03:07:11;;;;;;;23.77;13.85;;;9.30;99.90;;;;;;20988762;28;20044;-50
2021/09/04 03:17:14;;;;;;;25.02;13.85;;;9.10;99.90;;;;;;20988266;28;20040;-52
2021/09/04 03:27:16;;;;;;;25.67;14.18;;;9.10;99.90;;;;;;20987838;28;20078;-52
2021/09/04 03:37:18;;;;;;;25.50;14.52;;;9.00;99.90;;;;;;20987490;28;20045;-51
2021/09/04 03:47:21;;;;;;;19.60;11.88;;;9.10;99.90;;;;;;20987416;28;20033;-52
2021/09/04 03:57:23;;;;;;;20.52;12.73;;;9.20;99.90;;;;;;20984828;28;20045;-50
2021/09/04 04:07:25;;;;;;;29.38;14.95;;;9.10;99.90;;;;;;20986417;28;20098;-50
2021/09/04 04:17:30;;;;;;;24.80;14.65;;;9.20;99.90;;;;;;20999176;28;20036;-51
2021/09/04 04:27:33;;;;;;;22.40;12.90;;;9.20;99.90;;;;;;21001752;28;20394;-49
2021/09/04 04:37:39;;;;;;;22.20;14.13;;;9.30;99.90;;;;;;20999184;28;20059;-52
2021/09/04 04:47:42;;;;;;;19.67;12.93;;;9.60;99.90;;;;;;21000286;28;20043;-47
2021/09/04 04:57:44;;;;;;;15.15;10.02;;;9.70;99.90;;;;;;20998516;28;20051;-49
2021/09/04 05:07:47;;;;;;;20.30;10.82;;;9.50;99.90;;;;;;20998979;28;20037;-51
2021/09/04 05:17:49;;;;;;;21.08;11.82;;;9.60;99.90;;;;;;20996515;28;20032;-52
2021/09/04 05:27:51;;;;;;;21.15;11.73;;;9.70;99.90;;;;;;20995052;28;20482;-52
2021/09/04 05:37:53;;;;;;;17.50;10.73;;;9.90;99.90;;;;;;20995679;28;20048;-49
2021/09/04 05:47:55;;;;;;;20.50;13.07;;;10.10;99.90;;;;;;20994689;28;20033;-51
2021/09/04 05:57:57;;;;;;;22.33;13.43;;;10.20;99.90;;;;;;20993842;28;20040;-54
2021/09/04 06:07:59;;;;;;;19.92;11.93;;;10.40;99.90;;;;;;20992844;28;20466;-53
2021/09/04 06:18:01;;;;;;;19.52;11.35;;;10.60;99.90;;;;;;20992001;28;20082;-50
2021/09/04 06:28:03;;;;;;;18.40;10.43;;;10.90;99.90;;;;;;20991319;28;20040;-48
2021/09/04 06:38:05;;;;;;;14.98;9.32;;;11.30;99.90;;;;;;20990219;28;20052;-51
2021/09/04 06:48:09;;;;;;;13.35;8.15;;;11.80;99.90;;;;;;20991342;28;20450;-49
2021/09/04 06:58:10;;;;;;;13.95;7.53;;;13.20;99.90;;;;;;20990076;28;20106;-49
2021/09/04 07:08:12;;;;;;;9.80;6.55;;;14.30;99.90;;;;;;20990326;28;20040;-52
2021/09/04 07:18:15;;;;;;;7.32;5.35;;;15.30;99.90;;;;;;20988142;28;20036;-51
2021/09/04 07:28:17;;;;;;;8.23;5.40;;;16.50;99.90;;;;;;20988355;28;20032;-48
2021/09/04 07:38:19;;;;;;;7.97;5.53;;;17.70;99.90;;;;;;20987061;28;20437;-48
2021/09/04 07:48:21;;;;;;;7.57;5.43;;;18.60;99.90;;;;;;20999203;28;20028;-52
2021/09/04 07:58:23;;;;;;;8.32;5.53;;;19.00;99.90;;;;;;21012819;28;20067;-52
2021/09/04 08:08:25;;;;;;;6.93;5.35;;;19.70;99.90;;;;;;21010559;28;20375;-49
2021/09/04 08:18:27;;;;;;;8.25;5.47;;;20.30;99.90;;;;;;21007643;28;20028;-52
2021/09/04 08:28:29;;;;;;;6.88;5.05;;;20.90;99.90;;;;;;21006092;28;20028;-51
2021/09/04 08:38:31;;;;;;;6.05;4.78;;;21.20;99.60;;;;;;21002281;28;20051;-49
2021/09/04 08:48:34;;;;;;;8.88;5.93;;;21.80;97.70;;;;;;21002928;28;20413;-53
2021/09/04 08:58:37;;;;;;;14.93;5.90;;;20.80;96.70;;;;;;21000611;28;20028;-49
2021/09/04 09:08:43;;;;;;;9.57;6.20;;;19.90;98.50;;;;;;20999844;28;20044;-53
2021/09/04 09:19:00;;;;;;;8.45;6.00;;;19.10;99.70;;;;;;20998051;28;20078;-48
2021/09/04 09:29:23;;;;;;;9.38;6.20;;;18.90;99.90;;;;;;20997479;28;20067;-51
2021/09/04 09:39:36;;;;;;;10.80;6.47;;;18.80;99.90;;;;;;20995699;28;20407;-51
2021/09/04 09:49:45;;;;;;;10.00;5.88;;;18.40;99.90;;;;;;20994666;28;20090;-53
2021/09/04 09:59:49;;;;;;;9.10;6.20;;;18.30;99.90;;;;;;20993460;28;20028;-54
2021/09/04 10:09:52;;;;;;;11.57;6.65;;;19.30;99.90;;;;;;20992698;28;20036;-50
2021/09/04 10:19:54;;;;;;;8.77;6.72;;;20.30;99.90;;;;;;20993083;28;20370;-49
2021/09/04 10:29:57;;;;;;;11.82;6.60;;;21.20;98.50;;;;;;20992471;28;20041;-54
2021/09/04 10:40:10;;;;;;;10.27;6.88;;;20.90;98.00;;;;;;20990855;28;20048;-52
2021/09/04 10:50:20;;;;;;;11.52;7.32;;;20.30;99.30;;;;;;20990141;28;20378;-53
2021/09/04 11:00:27;;;;;;;12.15;8.18;;;19.90;99.90;;;;;;20988990;28;20032;-55
2021/09/04 11:10:30;;;;;;;10.82;6.93;;;19.70;99.90;;;;;;20988925;28;20386;-55
2021/09/04 11:20:32;;;;;;;11.02;7.72;;;19.30;99.90;;;;;;20987334;28;20090;-49
2021/09/04 11:30:34;;;;;;;8.23;6.45;;;19.40;99.90;;;;;;20988076;28;20037;-49
2021/09/04 11:40:36;;;;;;;11.27;7.88;;;19.50;99.90;;;;;;20987359;28;20482;-50
2021/09/04 11:50:40;;;;;;;12.13;7.45;;;19.60;99.90;;;;;;20989694;28;20062;-54
2021/09/04 12:00:44;;;;;;;11.20;8.05;;;19.40;99.90;;;;;;20987973;28;20359;-51
2021/09/04 12:10:47;;;;;;;11.52;7.90;;;18.90;99.90;;;;;;20986947;28;20082;-50
2021/09/04 12:20:51;;;;;;;14.25;9.45;;;19.30;99.90;;;;;;20988889;28;20551;-54
2021/09/04 12:31:10;;;;;;;11.25;8.40;;;20.90;99.50;;;;;;20988600;28;20102;-53
2021/09/04 12:41:16;;;;;;;;;;;20.60;99.90;;;;;;21005520;28;20044;-54
2021/09/04 12:51:18;;;;;;;14.70;8.48;;;21.50;98.70;;;;;;21001700;28;19915;-53
2021/09/04 13:01:20;;;;;;;13.57;8.82;;;22.00;97.70;;;;;;21000815;28;20037;-56
2021/09/04 13:11:22;;;;;;;11.68;8.35;;;22.00;97.20;;;;;;21002402;28;20024;-54
2021/09/04 13:21:24;;;;;;;13.43;8.38;;;22.00;99.80;;;;;;21003675;28;20036;-51
2021/09/04 13:31:27;;;;;;;14.15;8.40;;;22.40;96.80;;;;;;21002802;28;20040;-49
2021/09/04 13:41:28;;;;;;;11.95;8.30;;;22.10;98.00;;;;;;20996474;28;20040;-55
2021/09/04 13:51:31;;;;;;;9.85;7.03;;;23.00;96.30;;;;;;20997201;28;20382;-49
2021/09/04 14:01:33;;;;;;;9.77;7.22;;;22.90;94.60;;;;;;20999923;28;20043;-50
2021/09/04 14:11:35;;;;;;;13.57;7.03;;;22.20;94.60;;;;;;20993561;28;20020;-54
2021/09/04 14:21:36;;;;;;;12.68;7.30;;;22.90;94.00;;;;;;20997910;28;20486;-55
2021/09/04 14:31:38;;;;;;;9.02;6.78;;;23.00;93.60;;;;;;21002456;28;20029;-51
2021/09/04 14:41:40;;;;;;;10.95;6.85;;;22.70;92.40;;;;;;21002788;28;20379;-51
2021/09/04 14:51:43;;;;;;;8.52;5.97;;;22.50;93.20;;;;;;20997026;28;20037;-52
2021/09/04 15:01:45;;;;;;;9.70;5.50;;;22.30;92.80;;;;;;20997053;28;20367;-55
2021/09/04 15:11:47;;;;;;;9.98;6.18;;;21.70;93.20;;;;;;21000712;28;20036;-49
2021/09/04 15:21:50;;;;;;;7.05;5.65;;;20.90;93.20;;;;;;20994834;28;20058;-55
2021/09/04 15:31:52;;;;;;;7.65;5.25;;;20.40;93.70;;;;;;20995971;28;20036;-50
2021/09/04 15:41:54;;;;;;;7.63;5.35;;;19.60;95.60;;;;;;20990519;28;20407;-50
2021/09/04 15:51:56;;;;;;;6.95;4.63;;;19.00;95.70;;;;;;20988916;28;20565;-55
2021/09/04 16:02:01;;;;;;;6.30;4.53;;;18.50;97.00;;;;;;20991299;28;20422;-55
2021/09/04 16:12:03;;;;;;;8.35;4.82;;;18.10;97.60;;;;;;20998889;28;20051;-54
2021/09/04 16:22:05;;;;;;;8.05;4.85;;;17.60;99.00;;;;;;21003088;28;20024;-54
2021/09/04 16:32:07;;;;;;;7.25;4.90;;;17.10;99.60;;;;;;21000321;28;20036;-54
2021/09/04 16:42:09;;;;;;;9.25;5.38;;;16.70;99.90;;;;;;20999731;28;20555;-54
2021/09/04 16:52:12;;;;;;;8.60;5.15;;;16.10;99.90;;;;;;20999363;28;20020;-54
2021/09/04 17:02:13;;;;;;;9.48;6.18;;;15.50;99.90;;;;;;20998955;28;20059;-53
2021/09/04 17:12:15;;;;;;;9.60;6.07;;;15.00;99.90;;;;;;20998358;28;20047;-49
2021/09/04 17:22:18;;;;;;;8.45;5.65;;;14.50;99.90;;;;;;20997690;28;20043;-52
2021/09/04 17:32:19;;;;;;;13.15;7.15;;;13.90;99.90;;;;;;20996533;28;20025;-49
2021/09/04 17:42:22;;;;;;;10.10;6.97;;;13.50;99.90;;;;;;20995533;28;20371;-50
2021/09/04 17:52:24;;;;;;;12.77;8.90;;;13.00;99.90;;;;;;20994768;28;20039;-52
2021/09/04 18:02:26;;;;;;;12.82;7.38;;;12.50;99.90;;;;;;20994530;28;20028;-51
2021/09/04 18:12:28;;;;;;;13.13;7.55;;;12.10;99.90;;;;;;20993590;28;20036;-49
2021/09/04 18:22:30;;;;;;;12.35;8.65;;;12.10;99.90;;;;;;20992762;28;20482;-50
2021/09/04 18:32:32;;;;;;;15.93;9.43;;;11.90;99.90;;;;;;20991319;28;20039;-52
2021/09/04 18:42:34;;;;;;;12.18;7.45;;;11.90;99.90;;;;;;20991113;28;20044;-49
2021/09/04 18:52:37;;;;;;;11.75;7.88;;;11.90;99.90;;;;;;20990039;28;20051;-50
2021/09/04 19:02:39;;;;;;;12.57;8.05;;;12.10;99.90;;;;;;20989347;28;20028;-49
2021/09/04 19:12:41;;;;;;;10.77;7.60;;;12.30;99.90;;;;;;20988912;28;20039;-50
2021/09/04 19:22:44;;;;;;;17.50;7.57;;;12.40;99.90;;;;;;20988641;28;20032;-50
2021/09/04 19:32:46;;;;;;;9.07;6.25;;;12.40;99.90;;;;;;20987681;28;20098;-49
2021/09/04 19:42:49;;;;;;;11.27;7.57;;;12.40;99.90;;;;;;20992087;28;20067;-51
2021/09/04 19:52:51;;;;;;;13.18;8.90;;;12.20;99.90;;;;;;21003888;28;20037;-50
2021/09/04 20:02:53;;;;;;;10.20;7.00;;;12.00;99.90;;;;;;21003116;28;20029;-50
2021/09/04 20:12:55;;;;;;;12.15;7.90;;;11.90;99.90;;;;;;21001776;28;20102;-50
2021/09/04 20:22:57;;;;;;;12.38;8.98;;;11.60;99.90;;;;;;21001271;28;20040;-48
2021/09/04 20:33:00;;;;;;;10.75;7.47;;;11.40;99.90;;;;;;20999914;28;20400;-47
2021/09/04 20:43:01;;;;;;;14.60;9.30;;;11.20;99.90;;;;;;20995579;28;20052;-52
2021/09/04 20:53:05;;;;;;;13.40;9.00;;;11.20;99.90;;;;;;20994803;28;20040;-48
2021/09/04 21:03:07;;;;;;;13.35;7.97;;;11.30;99.90;;;;;;20993385;28;20028;-48
2021/09/04 21:13:10;;;;;;;11.65;7.93;;;11.40;99.90;;;;;;20992718;28;20470;-51
2021/09/04 21:23:13;;;;;;;10.20;6.55;;;11.20;99.90;;;;;;20991854;28;20555;-53
2021/09/04 21:33:16;;;;;;;14.45;9.00;;;11.00;99.90;;;;;;20991736;28;20039;-50
2021/09/04 21:43:18;;;;;;;11.53;7.77;;;10.80;99.90;;;;;;20943871;28;1394225;-47
2021/09/04 21:53:20;;;;;;;16.85;10.27;;;10.60;99.90;;;;;;20994510;28;20348;-49
2021/09/04 22:03:22;;;;;;;17.35;9.52;;;10.70;99.90;;;;;;20991809;28;20029;-48
2021/09/04 22:13:24;;;;;;;12.32;9.02;;;10.90;99.90;;;;;;20992094;28;20190;-52
2021/09/04 22:23:25;;;;;;;12.73;8.93;;;10.90;99.90;;;;;;20991762;28;20047;-48
2021/09/04 22:33:28;;;;;;;12.77;9.13;;;10.80;99.90;;;;;;20990708;28;20034;-50
2021/09/04 22:43:29;;;;;;;14.07;9.70;;;10.70;99.90;;;;;;20989480;28;20056;-49
2021/09/04 22:53:31;;;;;;;16.17;11.20;;;10.70;99.90;;;;;;20989245;28;20058;-47
2021/09/04 23:03:34;;;;;;;14.73;8.57;;;10.50;99.90;;;;;;20988656;28;20044;-51
2021/09/04 23:13:36;;;;;;;12.85;9.07;;;10.90;99.90;;;;;;20987991;28;20054;-52
2021/09/04 23:23:38;;;;;;;16.55;11.00;;;11.10;99.90;;;;;;20987745;28;20028;-49
2021/09/04 23:33:40;;;;;;;16.13;10.23;;;11.40;99.90;;;;;;20987226;28;20029;-49
2021/09/04 23:43:42;;;;;;;17.80;11.80;;;11.00;99.90;;;;;;20986631;28;20494;-51
2021/09/04 23:53:45;;;;;;;16.80;11.35;;;10.70;99.90;;;;;;20985719;28;20379;-50
